Time;durP1;ratioP1;P1;durP2;ratioP2;P2;SDS_P1;SDS_P2;PMS_P1;PMS_P2;Temp;Humidity;BMP_temperature;BMP_pressure;BME280_temperature;BME280_humidity;BME280_pressure;Samples;Min_cycle;Max_cycle;Signal;HPM_P1;HPM_P2
2022/11/20 00:01:50;;;;;;;0.60;0.60;;;5.10;99.90;;;;;;5068935;28;20036;-87
2022/11/20 00:04:16;;;;;;;0.50;0.35;;;5.20;99.90;;;;;;5052668;28;20071;-88
2022/11/20 00:06:41;;;;;;;0.20;0.20;;;5.20;99.90;;;;;;5072980;28;20944;-86
2022/11/20 00:09:09;;;;;;;1.20;1.10;;;5.20;99.90;;;;;;5049354;28;20499;-86
2022/11/20 00:11:35;;;;;;;0.20;0.20;;;5.10;99.90;;;;;;5052700;28;20035;-86
2022/11/20 00:14:02;;;;;;;1.55;1.45;;;5.00;99.90;;;;;;5064166;28;20033;-86
2022/11/20 00:16:29;;;;;;;2.40;1.80;;;5.10;99.90;;;;;;5057357;28;20033;-87
2022/11/20 00:18:55;;;;;;;1.40;1.08;;;5.10;99.90;;;;;;5063667;28;20050;-86
2022/11/20 00:21:25;;;;;;;3.35;1.02;;;5.10;99.90;;;;;;5068250;28;20028;-83
2022/11/20 00:23:52;;;;;;;1.10;1.08;;;5.20;99.90;;;;;;5063078;28;20056;-84
2022/11/20 00:26:19;;;;;;;1.55;0.45;;;5.40;99.90;;;;;;5070086;28;20490;-84
2022/11/20 00:28:51;;;;;;;1.75;0.40;;;5.50;99.90;;;;;;5069815;28;20032;-83
2022/11/20 00:31:17;;;;;;;0.60;0.60;;;5.40;99.90;;;;;;5063843;28;20029;-83
2022/11/20 00:33:44;;;;;;;0.95;0.88;;;5.40;99.90;;;;;;5062259;28;20055;-84
2022/11/20 00:36:15;;;;;;;0.65;0.65;;;5.20;99.90;;;;;;5050257;28;20032;-83
2022/11/20 00:38:42;;;;;;;2.28;2.13;;;5.20;99.90;;;;;;5051649;28;20032;-83
2022/11/20 00:41:10;;;;;;;3.22;0.63;;;5.40;99.90;;;;;;5068059;28;20144;-83
2022/11/20 00:43:36;;;;;;;2.58;2.10;;;5.50;99.90;;;;;;5058663;28;20037;-84
2022/11/20 00:46:17;;;;;;;0.52;0.52;;;5.50;99.90;;;;;;5065353;28;20103;-83
2022/11/20 00:48:43;;;;;;;0.68;0.68;;;5.50;99.90;;;;;;5048644;28;20052;-84
2022/11/20 00:51:11;;;;;;;1.85;1.10;;;5.40;99.90;;;;;;5046977;28;20553;-85
2022/11/20 00:53:36;;;;;;;0.10;0.10;;;5.30;99.90;;;;;;5038430;28;20024;-84
2022/11/20 00:56:06;;;;;;;0.35;0.35;;;5.40;99.90;;;;;;5064588;28;20757;-85
2022/11/20 00:58:34;;;;;;;0.30;0.30;;;5.40;99.90;;;;;;5053311;28;20582;-85
2022/11/20 01:01:07;;;;;;;0.55;0.55;;;5.50;99.90;;;;;;5073170;28;20149;-87
2022/11/20 01:03:39;;;;;;;0.52;0.52;;;5.70;99.90;;;;;;5048360;28;20032;-86
2022/11/20 01:06:10;;;;;;;0.55;0.55;;;5.70;99.90;;;;;;5043403;28;20020;-86
2022/11/20 01:08:36;;;;;;;0.57;0.25;;;5.70;99.90;;;;;;5057952;28;20028;-88
2022/11/20 01:11:14;;;;;;;0.25;0.25;;;5.80;99.90;;;;;;5049974;28;20028;-88
2022/11/20 01:13:41;;;;;;;0.52;0.52;;;5.70;99.90;;;;;;5048477;28;20468;-87
2022/11/20 01:16:10;;;;;;;0.10;0.10;;;5.70;99.90;;;;;;5053694;28;20032;-86
2022/11/20 01:18:38;;;;;;;0.32;0.32;;;5.80;99.90;;;;;;5069901;28;20031;-85
2022/11/20 01:21:11;;;;;;;0.50;0.50;;;5.70;99.90;;;;;;5067271;28;20721;-85
2022/11/20 01:23:40;;;;;;;0.40;0.40;;;5.70;99.90;;;;;;5067280;28;20404;-85
2022/11/20 01:26:08;;;;;;;0.20;0.20;;;5.60;99.90;;;;;;5046819;28;20028;-85
2022/11/20 01:28:35;;;;;;;2.80;1.00;;;5.60;99.90;;;;;;5048690;28;20024;-86
2022/11/20 01:31:01;;;;;;;0.52;0.52;;;5.60;99.90;;;;;;5053532;28;20024;-85
2022/11/20 01:33:27;;;;;;;0.75;0.43;;;5.50;99.90;;;;;;5049288;28;20468;-84
2022/11/20 01:36:02;;;;;;;0.20;0.20;;;5.60;99.90;;;;;;5070505;28;20024;-85
2022/11/20 01:38:28;;;;;;;0.85;0.85;;;5.50;99.90;;;;;;5061388;28;20301;-85
2022/11/20 01:40:55;;;;;;;0.10;0.10;;;5.60;99.90;;;;;;5063710;28;20028;-85
2022/11/20 01:43:21;;;;;;;0.20;0.20;;;5.70;99.90;;;;;;5067490;28;20031;-85
2022/11/20 01:45:58;;;;;;;0.20;0.20;;;5.80;99.90;;;;;;5058641;28;20133;-88
2022/11/20 01:48:28;;;;;;;0.10;0.10;;;5.80;99.90;;;;;;5067619;28;20538;-88
2022/11/20 01:50:54;;;;;;;0.17;0.17;;;5.90;99.90;;;;;;5062513;28;20139;-83
2022/11/20 01:53:25;;;;;;;0.38;0.38;;;5.80;99.90;;;;;;5059052;28;20559;-85
2022/11/20 01:55:54;;;;;;;0.80;0.80;;;5.90;99.90;;;;;;5071016;28;20131;-85
2022/11/20 01:58:30;;;;;;;0.30;0.30;;;5.70;99.90;;;;;;5062080;28;20028;-82
2022/11/20 02:00:56;;;;;;;0.40;0.40;;;5.70;99.90;;;;;;5069099;28;20060;-85
2022/11/20 02:03:22;;;;;;;0.10;0.10;;;5.70;99.90;;;;;;5060264;28;20025;-85
2022/11/20 02:06:06;;;;;;;0.20;0.20;;;5.60;99.90;;;;;;5066031;28;20044;-83
2022/11/20 02:08:32;;;;;;;0.52;0.47;;;5.50;99.90;;;;;;5059693;28;20029;-84
2022/11/20 02:10:58;;;;;;;0.13;0.13;;;5.50;99.90;;;;;;5068200;28;20024;-85
2022/11/20 02:16:29;;;;;;;0.40;0.40;;;5.30;99.90;;;;;;5057728;28;20079;-85
2022/11/20 02:18:58;;;;;;;0.00;0.00;;;5.40;99.90;;;;;;5052704;28;20052;-86
2022/11/20 02:21:36;;;;;;;0.63;0.63;;;5.50;99.90;;;;;;5045849;28;20869;-86
2022/11/20 02:24:21;;;;;;;0.17;0.17;;;5.60;99.90;;;;;;5064570;28;20052;-85
2022/11/20 02:27:04;;;;;;;0.45;0.45;;;5.60;99.90;;;;;;5058516;28;20555;-88
2022/11/20 02:29:35;;;;;;;0.45;0.25;;;5.70;99.90;;;;;;5078669;28;20585;-85
2022/11/20 02:32:01;;;;;;;3.30;0.73;;;5.60;99.90;;;;;;5058477;28;20029;-86
2022/11/20 02:34:28;;;;;;;0.45;0.45;;;5.70;99.90;;;;;;5066611;28;20575;-85
2022/11/20 02:36:55;;;;;;;4.65;1.45;;;5.70;99.90;;;;;;5064336;28;20056;-86
2022/11/20 02:39:24;;;;;;;1.55;0.65;;;5.70;99.90;;;;;;5064025;28;20033;-87
2022/11/20 02:41:53;;;;;;;0.22;0.22;;;5.70;99.90;;;;;;5054408;28;20032;-87
2022/11/20 02:44:19;;;;;;;0.35;0.30;;;5.80;99.90;;;;;;5061597;28;20581;-88
2022/11/20 02:46:45;;;;;;;0.30;0.30;;;5.80;99.90;;;;;;5069979;28;20033;-89
2022/11/20 02:49:11;;;;;;;0.32;0.30;;;6.00;99.90;;;;;;5049722;28;20058;-87
2022/11/20 02:51:37;;;;;;;0.20;0.20;;;6.00;99.90;;;;;;5055966;28;20123;-87
2022/11/20 02:54:02;;;;;;;1.27;0.85;;;5.90;99.90;;;;;;5055627;28;20063;-88
2022/11/20 02:56:28;;;;;;;1.30;0.85;;;5.90;99.90;;;;;;5071972;28;20086;-88
2022/11/20 02:58:54;;;;;;;0.10;0.10;;;5.70;99.90;;;;;;5078759;28;20530;-88
2022/11/20 03:01:19;;;;;;;0.10;0.10;;;5.50;99.90;;;;;;5070590;28;20032;-86
2022/11/20 03:03:45;;;;;;;0.45;0.43;;;5.40;99.90;;;;;;5072288;28;20506;-88
2022/11/20 03:06:11;;;;;;;0.65;0.55;;;5.50;99.90;;;;;;5062347;28;20036;-87
2022/11/20 03:08:37;;;;;;;0.63;0.63;;;5.40;99.90;;;;;;5062070;28;20573;-88
2022/11/20 03:11:06;;;;;;;0.10;0.10;;;5.40;99.90;;;;;;5068769;28;20020;-88
2022/11/20 03:13:32;;;;;;;0.47;0.47;;;5.60;99.90;;;;;;5061766;28;20099;-88
2022/11/20 03:16:04;;;;;;;0.32;0.32;;;5.50;99.90;;;;;;5051279;28;20571;-88
2022/11/20 03:18:29;;;;;;;0.20;0.20;;;5.50;99.90;;;;;;5073417;28;20040;-88
2022/11/20 03:20:58;;;;;;;0.10;0.10;;;5.50;99.90;;;;;;5063618;28;20135;-88
2022/11/20 03:23:25;;;;;;;0.10;0.10;;;5.60;99.90;;;;;;5057801;28;20511;-87
2022/11/20 03:25:50;;;;;;;0.20;0.20;;;5.70;99.90;;;;;;5064163;28;20025;-85
2022/11/20 03:28:16;;;;;;;0.00;0.00;;;5.50;99.90;;;;;;5048863;28;20782;-85
2022/11/20 03:30:42;;;;;;;0.00;0.00;;;5.50;99.90;;;;;;5064682;28;20037;-84
2022/11/20 03:33:07;;;;;;;0.22;0.22;;;5.70;99.90;;;;;;5039759;28;20063;-84
2022/11/20 03:35:33;;;;;;;0.10;0.10;;;5.70;99.90;;;;;;5083196;28;20028;-86
2022/11/20 03:37:59;;;;;;;0.40;0.40;;;5.40;99.90;;;;;;5060704;28;20040;-85
2022/11/20 03:40:24;;;;;;;0.75;0.75;;;5.50;99.90;;;;;;5070736;28;20028;-86
2022/11/20 03:42:50;;;;;;;0.20;0.20;;;5.50;99.90;;;;;;5074400;28;20040;-87
2022/11/20 03:45:17;;;;;;;0.47;0.47;;;5.60;99.90;;;;;;5051857;28;20025;-88
2022/11/20 03:47:44;;;;;;;0.30;0.30;;;5.60;99.90;;;;;;5056811;28;20033;-85
2022/11/20 03:50:12;;;;;;;0.93;0.93;;;5.50;99.90;;;;;;5054768;28;20768;-83
2022/11/20 03:52:38;;;;;;;0.10;0.10;;;5.40;99.90;;;;;;5056803;28;20571;-86
2022/11/20 03:55:05;;;;;;;0.30;0.30;;;5.50;99.90;;;;;;5053691;28;20159;-86
2022/11/20 03:57:31;;;;;;;0.30;0.30;;;5.30;99.90;;;;;;5042493;28;20059;-86
2022/11/20 03:59:56;;;;;;;0.25;0.25;;;5.40;99.90;;;;;;5066289;28;20044;-87
2022/11/20 04:02:22;;;;;;;0.30;0.30;;;5.50;99.90;;;;;;5065687;28;20107;-86
2022/11/20 04:04:48;;;;;;;0.10;0.10;;;5.40;99.90;;;;;;5060481;28;20436;-87
2022/11/20 04:07:13;;;;;;;0.13;0.13;;;5.40;99.90;;;;;;5070003;28;20021;-87
2022/11/20 04:09:39;;;;;;;0.80;0.80;;;5.50;99.90;;;;;;5074397;28;20024;-86
2022/11/20 04:12:05;;;;;;;0.28;0.28;;;5.40;99.90;;;;;;5070993;28;20024;-85
2022/11/20 04:14:30;;;;;;;0.20;0.20;;;5.10;99.90;;;;;;5065299;28;20017;-88
2022/11/20 04:16:56;;;;;;;0.52;0.52;;;5.40;99.90;;;;;;5045554;28;20025;-87
2022/11/20 04:19:22;;;;;;;0.35;0.35;;;5.40;99.90;;;;;;5070199;28;20962;-86
2022/11/20 04:21:47;;;;;;;0.10;0.10;;;5.50;99.90;;;;;;5068786;28;20511;-86
2022/11/20 04:24:13;;;;;;;0.30;0.30;;;5.50;99.90;;;;;;5052899;28;20025;-89
2022/11/20 04:26:39;;;;;;;0.10;0.10;;;5.60;99.90;;;;;;5072087;28;20028;-89
2022/11/20 04:29:05;;;;;;;0.22;0.22;;;5.50;99.90;;;;;;5053815;28;20031;-90
2022/11/20 04:31:34;;;;;;;0.10;0.10;;;5.50;99.90;;;;;;5071392;28;20029;-88
2022/11/20 04:34:02;;;;;;;0.45;0.45;;;5.70;99.90;;;;;;5070618;28;20031;-89
2022/11/20 04:36:29;;;;;;;0.25;0.25;;;5.60;99.90;;;;;;5052770;28;20131;-92
2022/11/20 04:38:57;;;;;;;1.08;1.02;;;5.40;99.90;;;;;;5050513;28;20043;-87
2022/11/20 04:41:25;;;;;;;0.30;0.30;;;5.30;99.90;;;;;;5069435;28;20062;-88
2022/11/20 04:43:53;;;;;;;0.28;0.28;;;5.10;99.90;;;;;;5057799;28;20028;-89
2022/11/20 04:46:20;;;;;;;0.63;0.43;;;5.20;99.90;;;;;;5073919;28;20040;-89
2022/11/20 04:48:46;;;;;;;;;;;5.20;99.90;;;;;;5054489;28;20672;-89
2022/11/20 04:51:12;;;;;;;0.35;0.35;;;5.10;99.90;;;;;;5055956;28;19942;-90
2022/11/20 04:53:38;;;;;;;0.10;0.10;;;5.30;99.90;;;;;;5064663;28;20067;-88
2022/11/20 04:56:07;;;;;;;0.20;0.20;;;5.40;99.90;;;;;;5071959;28;20067;-93
2022/11/20 04:58:33;;;;;;;1.27;1.17;;;5.20;99.90;;;;;;5073062;28;20059;-89
2022/11/20 05:01:14;;;;;;;0.10;0.10;;;4.90;99.90;;;;;;5075705;28;20036;-86
2022/11/20 05:03:41;;;;;;;0.10;0.10;;;5.00;99.90;;;;;;5066333;28;20058;-92
2022/11/20 05:06:07;;;;;;;0.10;0.10;;;5.10;99.90;;;;;;5047642;28;20413;-86
2022/11/20 05:08:34;;;;;;;0.57;0.57;;;5.30;99.90;;;;;;5054174;28;20032;-90
2022/11/20 05:11:04;;;;;;;0.60;0.60;;;5.40;99.90;;;;;;5074682;28;20028;-88
2022/11/20 05:13:30;;;;;;;0.13;0.13;;;5.30;99.90;;;;;;5049753;28;20024;-85
2022/11/20 05:16:00;;;;;;;0.40;0.40;;;5.50;99.90;;;;;;5052871;28;20028;-87
2022/11/20 05:18:26;;;;;;;0.10;0.10;;;5.40;99.90;;;;;;5052346;28;20028;-88
2022/11/20 05:20:56;;;;;;;0.50;0.50;;;5.30;99.90;;;;;;5066790;28;20040;-84
2022/11/20 05:23:21;;;;;;;1.40;1.15;;;5.20;99.90;;;;;;5042233;28;20062;-83
2022/11/20 05:25:47;;;;;;;0.10;0.10;;;5.20;99.90;;;;;;5049845;28;20127;-83
2022/11/20 05:28:13;;;;;;;0.30;0.30;;;5.30;99.90;;;;;;5065533;28;20067;-85
2022/11/20 05:30:38;;;;;;;0.15;0.15;;;5.40;99.90;;;;;;5061527;28;20028;-85
2022/11/20 05:33:04;;;;;;;0.15;0.15;;;5.50;99.90;;;;;;5051163;28;20028;-81
2022/11/20 05:35:30;;;;;;;0.10;0.10;;;5.40;99.90;;;;;;5063108;28;20024;-85
2022/11/20 05:37:55;;;;;;;0.32;0.32;;;5.40;99.90;;;;;;5046572;28;20032;-89
2022/11/20 05:40:21;;;;;;;0.17;0.17;;;5.40;99.90;;;;;;5068646;28;20025;-82
2022/11/20 05:42:46;;;;;;;0.50;0.50;;;5.20;99.90;;;;;;5065771;28;20052;-80
2022/11/20 05:45:12;;;;;;;0.45;0.25;;;5.30;99.90;;;;;;5058184;28;20035;-80
2022/11/20 05:47:38;;;;;;;0.10;0.10;;;5.30;99.90;;;;;;5067361;28;20042;-82
2022/11/20 05:50:04;;;;;;;0.10;0.10;;;5.30;99.90;;;;;;5049095;28;20094;-82
2022/11/20 05:52:30;;;;;;;0.10;0.10;;;4.80;99.90;;;;;;5068011;28;20063;-81
2022/11/20 05:54:56;;;;;;;0.20;0.20;;;4.80;99.90;;;;;;5067655;28;20083;-81
2022/11/20 05:57:21;;;;;;;0.22;0.22;;;4.90;99.90;;;;;;5062303;28;20067;-81
2022/11/20 05:59:47;;;;;;;0.22;0.22;;;5.00;99.90;;;;;;5051309;28;20132;-79
2022/11/20 06:02:13;;;;;;;0.10;0.10;;;5.10;99.90;;;;;;5065151;28;20033;-80
2022/11/20 06:04:38;;;;;;;0.50;0.50;;;5.10;99.90;;;;;;5063886;28;20115;-79
2022/11/20 06:07:07;;;;;;;0.20;0.20;;;5.00;99.90;;;;;;5066004;28;20025;-80
2022/11/20 06:09:33;;;;;;;2.00;0.65;;;5.20;99.90;;;;;;5053658;28;20107;-80
2022/11/20 06:11:59;;;;;;;0.10;0.10;;;5.00;99.90;;;;;;5061833;28;20622;-81
2022/11/20 06:14:24;;;;;;;0.20;0.20;;;5.00;99.90;;;;;;5069702;28;20030;-81
2022/11/20 06:16:50;;;;;;;0.10;0.10;;;5.10;99.90;;;;;;5064410;28;20028;-81
2022/11/20 06:19:16;;;;;;;0.10;0.10;;;5.20;99.90;;;;;;5068050;28;20025;-84
2022/11/20 06:21:42;;;;;;;0.25;0.25;;;4.70;99.90;;;;;;5051650;28;20039;-92
2022/11/20 06:24:10;;;;;;;0.10;0.10;;;4.90;99.90;;;;;;5052498;28;20048;-89
2022/11/20 06:26:36;;;;;;;0.43;0.43;;;5.10;99.90;;;;;;5060710;28;20024;-88
2022/11/20 06:29:01;;;;;;;0.38;0.38;;;5.00;99.90;;;;;;5067193;28;20561;-92
2022/11/20 06:31:27;;;;;;;0.17;0.17;;;4.80;99.90;;;;;;5054943;28;20033;-94
2022/11/20 06:33:53;;;;;;;0.25;0.25;;;4.90;99.90;;;;;;5060740;28;20036;-93
2022/11/20 06:36:21;;;;;;;1.73;0.70;;;5.00;99.90;;;;;;5054582;28;20031;-88
2022/11/20 06:38:47;;;;;;;0.10;0.10;;;5.00;99.90;;;;;;5077153;28;20044;-85
2022/11/20 06:41:15;;;;;;;0.25;0.25;;;5.00;99.90;;;;;;5063836;28;20033;-93
2022/11/20 06:43:41;;;;;;;0.75;0.75;;;5.10;99.90;;;;;;5081996;28;20039;-92
2022/11/20 06:46:10;;;;;;;0.13;0.13;;;5.10;99.90;;;;;;5075097;28;20033;-91
2022/11/20 06:48:35;;;;;;;0.63;0.63;;;5.30;99.90;;;;;;5057481;28;20021;-93
2022/11/20 06:51:04;;;;;;;0.32;0.32;;;5.40;99.90;;;;;;5065160;28;20381;-92
2022/11/20 06:53:29;;;;;;;0.20;0.20;;;5.20;99.90;;;;;;5051902;28;20043;-92
2022/11/20 06:55:57;;;;;;;0.65;0.65;;;5.20;99.90;;;;;;5049139;28;20451;-91
2022/11/20 06:58:23;;;;;;;0.60;0.60;;;5.00;99.90;;;;;;5057321;28;20041;-93
2022/11/20 07:00:49;;;;;;;0.40;0.40;;;5.00;99.90;;;;;;5079806;28;20051;-89
2022/11/20 07:03:15;;;;;;;0.40;0.40;;;5.20;99.90;;;;;;5048128;28;20058;-92
2022/11/20 07:05:40;;;;;;;0.35;0.35;;;5.40;99.90;;;;;;5040988;28;20100;-89
2022/11/20 07:08:06;;;;;;;0.47;0.47;;;5.50;99.90;;;;;;5054049;28;20039;-92
2022/11/20 07:10:32;;;;;;;0.47;0.47;;;5.30;99.90;;;;;;5065517;28;20614;-83
2022/11/20 07:12:58;;;;;;;0.20;0.20;;;5.30;99.90;;;;;;5068528;28;20070;-85
2022/11/20 07:15:25;;;;;;;0.22;0.22;;;5.40;99.90;;;;;;5071674;28;20047;-85
2022/11/20 07:17:51;;;;;;;0.13;0.13;;;5.60;99.90;;;;;;5078145;28;20043;-89
2022/11/20 07:20:17;;;;;;;0.20;0.20;;;5.50;99.90;;;;;;5047058;28;20075;-88
2022/11/20 07:22:43;;;;;;;1.13;0.95;;;5.60;99.90;;;;;;5067008;28;20112;-87
2022/11/20 07:25:09;;;;;;;0.75;0.73;;;5.60;99.90;;;;;;5051440;28;20475;-87
2022/11/20 07:27:35;;;;;;;0.28;0.28;;;5.70;99.90;;;;;;5066504;28;20028;-87
2022/11/20 07:30:05;;;;;;;0.30;0.30;;;5.80;99.90;;;;;;5071410;28;20036;-87
2022/11/20 07:32:30;;;;;;;0.40;0.40;;;5.70;99.90;;;;;;5053642;28;20082;-89
2022/11/20 07:34:56;;;;;;;0.57;0.57;;;5.60;99.90;;;;;;5054046;28;20064;-89
2022/11/20 07:37:22;;;;;;;0.28;0.28;;;5.60;99.90;;;;;;5053097;28;20067;-88
2022/11/20 07:39:47;;;;;;;0.45;0.45;;;5.50;99.90;;;;;;5067800;28;20033;-89
2022/11/20 07:42:13;;;;;;;0.63;0.63;;;5.40;99.90;;;;;;5069178;28;20040;-88
2022/11/20 07:44:39;;;;;;;0.32;0.32;;;5.40;99.90;;;;;;5067229;28;20040;-88
2022/11/20 07:47:05;;;;;;;0.88;0.82;;;5.50;99.90;;;;;;5062330;28;20028;-89
2022/11/20 07:49:30;;;;;;;0.35;0.35;;;5.70;99.90;;;;;;5064947;28;20415;-90
2022/11/20 07:51:56;;;;;;;0.25;0.25;;;5.80;99.90;;;;;;5056160;28;20024;-89
2022/11/20 07:54:22;;;;;;;0.20;0.20;;;5.60;99.90;;;;;;5079549;28;20072;-87
2022/11/20 07:56:50;;;;;;;0.80;0.60;;;5.50;99.90;;;;;;5072298;28;20029;-88
2022/11/20 07:59:16;;;;;;;0.20;0.20;;;5.70;99.90;;;;;;5051743;28;20020;-89
2022/11/20 08:01:42;;;;;;;0.30;0.30;;;6.00;99.90;;;;;;5056983;28;20815;-89
2022/11/20 08:04:09;;;;;;;1.35;1.05;;;5.80;99.90;;;;;;5053955;28;20036;-89
2022/11/20 08:06:35;;;;;;;0.30;0.30;;;5.80;99.90;;;;;;5054106;28;20032;-90
2022/11/20 08:09:01;;;;;;;0.40;0.40;;;5.80;99.90;;;;;;5053875;28;20051;-88
2022/11/20 08:14:13;;;;;;;0.15;0.15;;;5.70;99.90;;;;;;5062448;28;20561;-89
2022/11/20 08:16:49;;;;;;;0.88;0.82;;;5.80;99.90;;;;;;5055193;28;20082;-88
2022/11/20 08:19:17;;;;;;;0.15;0.15;;;6.00;99.90;;;;;;5053171;28;20024;-89
2022/11/20 08:21:43;;;;;;;0.10;0.10;;;6.00;99.90;;;;;;5057520;28;20693;-89
2022/11/20 08:24:09;;;;;;;0.63;0.60;;;6.20;99.90;;;;;;5060588;28;20062;-89
2022/11/20 08:26:36;;;;;;;0.73;0.73;;;6.30;99.90;;;;;;5051834;28;20103;-89
2022/11/20 08:29:02;;;;;;;0.60;0.60;;;6.30;99.90;;;;;;5042132;28;20032;-88
2022/11/20 08:31:28;;;;;;;0.80;0.63;;;6.10;99.90;;;;;;5056524;28;20472;-87
2022/11/20 08:33:54;;;;;;;0.50;0.50;;;6.10;99.90;;;;;;5041979;28;20056;-87
2022/11/20 08:36:22;;;;;;;0.17;0.17;;;6.00;99.90;;;;;;5068584;28;20466;-88
2022/11/20 08:38:49;;;;;;;0.10;0.10;;;5.80;99.90;;;;;;5042207;28;20082;-88
2022/11/20 08:41:23;;;;;;;0.22;0.22;;;5.60;99.90;;;;;;5051394;28;20031;-88
2022/11/20 08:44:09;;;;;;;0.93;0.93;;;5.50;99.90;;;;;;5073536;28;20036;-87
2022/11/20 08:46:40;;;;;;;0.38;0.38;;;5.60;99.90;;;;;;5068429;28;20401;-88
2022/11/20 08:49:09;;;;;;;0.55;0.55;;;5.60;99.90;;;;;;5053514;28;20055;-88
2022/11/20 08:51:35;;;;;;;0.10;0.10;;;5.60;99.90;;;;;;5054290;28;20016;-87
2022/11/20 08:54:01;;;;;;;0.10;0.10;;;5.70;99.90;;;;;;5051224;28;20115;-88
2022/11/20 08:56:26;;;;;;;0.50;0.50;;;5.50;99.90;;;;;;5052767;28;20143;-88
2022/11/20 08:58:52;;;;;;;0.30;0.30;;;5.60;99.90;;;;;;5051788;28;20032;-87
2022/11/20 09:01:20;;;;;;;0.30;0.30;;;5.80;99.90;;;;;;5071254;28;20039;-87
2022/11/20 09:03:46;;;;;;;0.00;0.00;;;5.90;99.90;;;;;;5050831;28;20028;-88
2022/11/20 09:06:12;;;;;;;0.55;0.55;;;6.00;99.90;;;;;;5066320;28;20041;-88
2022/11/20 09:08:38;;;;;;;3.00;0.80;;;5.80;99.90;;;;;;5047200;28;20032;-87
2022/11/20 09:11:04;;;;;;;0.40;0.40;;;5.80;99.90;;;;;;5070068;28;20040;-87
2022/11/20 09:13:31;;;;;;;0.10;0.10;;;6.20;99.90;;;;;;5064382;28;20377;-87
2022/11/20 09:16:00;;;;;;;0.20;0.20;;;6.40;99.90;;;;;;5068130;28;20054;-88
2022/11/20 09:18:27;;;;;;;0.20;0.20;;;6.60;99.90;;;;;;5051061;28;20127;-88
2022/11/20 09:21:00;;;;;;;3.53;0.88;;;6.60;99.90;;;;;;5067565;28;20032;-87
2022/11/20 09:23:26;;;;;;;0.32;0.20;;;6.70;99.90;;;;;;5038937;28;20109;-89
2022/11/20 09:25:52;;;;;;;0.03;0.03;;;6.10;99.90;;;;;;5060047;28;20251;-88
2022/11/20 09:28:18;;;;;;;0.13;0.13;;;6.40;99.90;;;;;;5064973;28;20039;-89
2022/11/20 09:30:44;;;;;;;0.30;0.30;;;6.50;99.90;;;;;;5042019;28;20488;-88
2022/11/20 09:33:10;;;;;;;0.25;0.25;;;6.80;99.90;;;;;;5050006;28;20029;-87
2022/11/20 09:35:36;;;;;;;0.40;0.40;;;6.80;99.90;;;;;;5042323;28;20028;-87
2022/11/20 09:38:08;;;;;;;5.57;0.65;;;6.90;99.90;;;;;;5055005;28;20041;-87
2022/11/20 09:40:38;;;;;;;0.20;0.20;;;7.40;99.90;;;;;;5052570;28;20032;-89
2022/11/20 09:43:22;;;;;;;0.40;0.40;;;7.10;99.90;;;;;;5078483;28;20032;-88
2022/11/20 09:46:14;;;;;;;0.50;0.50;;;7.50;99.90;;;;;;5050878;28;20036;-88
2022/11/20 09:48:48;;;;;;;1.15;1.05;;;7.30;99.90;;;;;;5054705;28;20025;-88
2022/11/20 09:51:29;;;;;;;0.30;0.30;;;7.40;99.90;;;;;;5030830;28;20084;-88
2022/11/20 09:54:30;;;;;;;0.45;0.45;;;7.00;99.90;;;;;;5034134;28;20064;-88
2022/11/20 09:57:00;;;;;;;0.10;0.10;;;7.40;99.90;;;;;;5010881;28;20040;-88
2022/11/20 09:59:44;;;;;;;0.32;0.20;;;7.70;99.90;;;;;;5048292;28;20064;-88
2022/11/20 10:02:29;;;;;;;0.63;0.63;;;7.70;99.90;;;;;;5029910;28;20029;-87
2022/11/20 10:05:15;;;;;;;0.10;0.10;;;7.90;99.90;;;;;;5031005;28;20036;-88
2022/11/20 10:07:54;;;;;;;0.20;0.20;;;7.90;99.90;;;;;;5048572;28;20446;-88
2022/11/20 10:10:35;;;;;;;0.10;0.10;;;7.90;99.90;;;;;;5032331;28;20037;-87
2022/11/20 10:13:27;;;;;;;0.10;0.10;;;7.50;99.90;;;;;;5039541;28;20029;-87
2022/11/20 10:16:38;;;;;;;0.63;0.63;;;7.50;99.90;;;;;;5029699;28;20121;-87
2022/11/20 10:19:12;;;;;;;0.10;0.10;;;7.70;99.90;;;;;;4941576;28;20061;-87
2022/11/20 10:22:14;;;;;;;0.25;0.25;;;7.90;99.90;;;;;;5038551;28;20791;-87
2022/11/20 10:24:56;;;;;;;0.10;0.10;;;8.20;99.90;;;;;;5024983;28;20091;-88
2022/11/20 10:27:58;;;;;;;0.20;0.20;;;8.40;99.90;;;;;;5037187;28;20800;-87
2022/11/20 10:30:25;;;;;;;3.20;0.93;;;8.20;99.90;;;;;;5041377;28;20037;-87
2022/11/20 10:33:12;;;;;;;0.32;0.32;;;8.10;99.90;;;;;;5029611;28;20033;-87
2022/11/20 10:36:08;;;;;;;0.20;0.20;;;8.10;99.90;;;;;;5019690;28;20617;-88
2022/11/20 10:38:34;;;;;;;0.43;0.40;;;8.10;99.90;;;;;;5020289;28;20065;-88
2022/11/20 10:43:50;;;;;;;0.40;0.40;;;7.90;99.90;;;;;;5047490;28;20844;-87
2022/11/20 10:46:21;;;;;;;0.15;0.15;;;7.80;99.90;;;;;;5046768;28;20531;-87
2022/11/20 10:48:49;;;;;;;0.60;0.60;;;8.10;99.90;;;;;;5044263;28;20032;-88
2022/11/20 10:52:04;;;;;;;0.20;0.20;;;8.30;99.90;;;;;;5050808;28;20644;-88
2022/11/20 10:54:33;;;;;;;0.10;0.10;;;8.50;99.90;;;;;;4977549;28;20506;-87
2022/11/20 10:57:33;;;;;;;1.65;1.20;;;8.90;99.90;;;;;;5049544;28;20134;-87
2022/11/20 11:00:04;;;;;;;0.20;0.20;;;9.10;99.90;;;;;;5066596;28;20519;-87
2022/11/20 11:02:42;;;;;;;0.45;0.45;;;9.40;99.90;;;;;;5033853;28;20028;-87
2022/11/20 11:05:15;;;;;;;0.55;0.55;;;9.30;99.90;;;;;;5034045;28;20036;-87
2022/11/20 11:07:41;;;;;;;0.40;0.40;;;8.90;99.90;;;;;;5051718;28;20025;-87
2022/11/20 11:10:20;;;;;;;0.10;0.10;;;8.70;99.90;;;;;;5032920;28;20033;-87
2022/11/20 11:12:50;;;;;;;0.88;0.43;;;8.30;99.90;;;;;;5047845;28;20029;-87
2022/11/20 11:15:26;;;;;;;0.40;0.40;;;8.70;99.90;;;;;;5051193;28;20108;-86
2022/11/20 11:17:52;;;;;;;0.30;0.30;;;8.60;99.90;;;;;;5066520;28;20033;-87
2022/11/20 11:20:20;;;;;;;0.30;0.30;;;8.60;99.90;;;;;;5050908;28;20036;-87
2022/11/20 11:22:53;;;;;;;0.28;0.28;;;8.80;99.90;;;;;;5051134;28;20036;-87
2022/11/20 11:25:20;;;;;;;0.38;0.38;;;8.80;99.90;;;;;;5051291;28;20032;-87
2022/11/20 11:27:49;;;;;;;0.20;0.20;;;8.80;99.90;;;;;;5051236;28;20025;-88
2022/11/20 11:30:16;;;;;;;0.32;0.32;;;9.10;99.90;;;;;;5051374;28;20029;-88
2022/11/20 11:32:42;;;;;;;1.80;0.25;;;9.10;99.90;;;;;;5033221;28;20067;-89
2022/11/20 11:35:26;;;;;;;0.68;0.68;;;9.30;99.90;;;;;;5033944;28;20516;-88
2022/11/20 11:38:23;;;;;;;0.08;0.08;;;9.20;99.90;;;;;;5032550;28;20036;-87
2022/11/20 11:40:49;;;;;;;0.20;0.20;;;9.00;99.90;;;;;;5048945;28;20110;-88
2022/11/20 11:46:33;;;;;;;0.17;0.17;;;9.00;99.90;;;;;;5047174;28;20039;-87
2022/11/20 11:49:16;;;;;;;0.85;0.35;;;9.20;99.90;;;;;;5032803;28;20435;-87
2022/11/20 11:51:47;;;;;;;3.60;1.85;;;9.40;99.90;;;;;;5050576;28;20135;-86
2022/11/20 11:55:12;;;;;;;0.22;0.22;;;9.30;99.90;;;;;;5033446;28;20025;-86
2022/11/20 11:57:54;;;;;;;1.25;0.70;;;9.30;99.90;;;;;;5005367;28;20050;-86
2022/11/20 12:00:21;;;;;;;0.30;0.30;;;9.40;99.90;;;;;;5032079;28;20496;-87
2022/11/20 12:02:50;;;;;;;0.30;0.30;;;9.20;99.90;;;;;;5054539;28;20025;-87
2022/11/20 12:05:21;;;;;;;0.35;0.35;;;9.20;99.90;;;;;;5031956;28;20036;-87
2022/11/20 12:08:25;;;;;;;0.30;0.30;;;9.20;99.90;;;;;;5065027;28;20049;-87
2022/11/20 12:10:59;;;;;;;0.10;0.10;;;9.30;99.90;;;;;;5051700;28;20410;-87
2022/11/20 12:13:34;;;;;;;0.20;0.20;;;9.40;99.90;;;;;;5050568;28;20056;-87
2022/11/20 12:16:02;;;;;;;0.30;0.30;;;9.40;99.90;;;;;;5064270;28;20115;-87
2022/11/20 12:18:29;;;;;;;0.43;0.43;;;9.40;99.90;;;;;;5031461;28;20029;-87
2022/11/20 12:21:24;;;;;;;0.22;0.22;;;9.50;99.90;;;;;;5049084;28;20041;-87
2022/11/20 12:24:23;;;;;;;0.20;0.20;;;9.80;99.90;;;;;;5031190;28;20039;-86
2022/11/20 12:26:52;;;;;;;0.10;0.10;;;9.80;99.90;;;;;;5030695;28;20037;-87
2022/11/20 12:29:50;;;;;;;0.10;0.10;;;9.80;99.90;;;;;;5049225;28;20060;-86
2022/11/20 12:32:28;;;;;;;1.00;1.00;;;9.70;99.90;;;;;;5029838;28;20068;-87
2022/11/20 12:35:31;;;;;;;0.10;0.10;;;9.90;99.90;;;;;;5031307;28;20093;-89
2022/11/20 12:38:27;;;;;;;1.02;0.93;;;9.60;99.90;;;;;;5061772;28;20044;-88
2022/11/20 12:40:53;;;;;;;0.55;0.55;;;9.50;99.90;;;;;;5031398;28;20029;-87
2022/11/20 12:46:46;;;;;;;0.20;0.20;;;9.20;99.90;;;;;;5049386;28;20089;-87
2022/11/20 12:49:23;;;;;;;0.30;0.30;;;9.00;99.90;;;;;;5044335;28;20132;-88
2022/11/20 12:52:01;;;;;;;0.30;0.30;;;9.30;99.90;;;;;;5038091;28;20097;-89
2022/11/20 12:54:54;;;;;;;0.45;0.45;;;9.40;99.90;;;;;;5040778;28;20041;-94
2022/11/20 12:57:44;;;;;;;0.30;0.30;;;9.30;99.90;;;;;;5036531;28;20110;-93
2022/11/20 13:00:19;;;;;;;0.20;0.20;;;9.50;99.90;;;;;;5054489;28;20555;-91
2022/11/20 13:03:22;;;;;;;0.20;0.20;;;9.60;99.90;;;;;;5035882;28;20028;-91
2022/11/20 13:05:53;;;;;;;0.10;0.10;;;9.60;99.90;;;;;;5035334;28;20112;-91
2022/11/20 13:08:40;;;;;;;0.10;0.10;;;9.20;99.90;;;;;;5035863;28;20051;-95
2022/11/20 13:11:30;;;;;;;0.52;0.47;;;9.00;99.90;;;;;;5026870;28;20044;-91
2022/11/20 13:14:04;;;;;;;0.30;0.30;;;9.00;99.90;;;;;;5052508;28;20075;-93
2022/11/20 13:16:37;;;;;;;0.80;0.80;;;9.10;99.90;;;;;;5036731;28;20028;-93
2022/11/20 13:19:05;;;;;;;0.10;0.10;;;9.00;99.90;;;;;;5032709;28;20044;-90
2022/11/20 13:21:42;;;;;;;0.35;0.35;;;9.00;99.90;;;;;;5038751;28;20062;-95
2022/11/20 13:24:29;;;;;;;0.10;0.10;;;8.90;99.90;;;;;;5043405;28;20032;-87
2022/11/20 13:27:07;;;;;;;0.40;0.40;;;9.00;99.90;;;;;;5039119;28;20059;-88
2022/11/20 13:29:35;;;;;;;0.30;0.30;;;8.40;99.90;;;;;;5048366;28;20083;-91
2022/11/20 13:32:07;;;;;;;0.47;0.47;;;8.20;99.90;;;;;;5029990;28;20025;-88